AUA61HK LOWW-LDSP
Flight info
| Callsign | AUA61HK |
|---|---|
| Flight time | 0h 51m |
| Altitude | 33000 |
| Route | STEIN4B STEIN DCT NOHAT DCT NEKIN DCT NIVES/N0436F350 DCT NUPSO NUPSO1Z |
| Aircraft | A320/M-SDE3FGHIRWY/LB1 |
Departure
| Time | 2026-05-04 11:31 |
|---|---|
| Airport | Vienna International Airport (LOWW) |
Arrival
| Time | 2026-05-04 12:22 |
|---|---|
| Airport | Split Saint Jerome Airport (LDSP) |
| Time | Latitude | Longitude | Altitude | Speed | Heading |
|---|---|---|---|---|---|
| 2026-05-04 10:56 | 48.11877 | 16.56820 | 611 ft | 0 kts | 206° |
| 2026-05-04 11:22 | 48.11940 | 16.56853 | 620 ft | 4 kts | 155° |
| 2026-05-04 11:22 | 48.11957 | 16.56829 | 622 ft | 4 kts | 116° |
| 2026-05-04 11:23 | 48.11962 | 16.56816 | 609 ft | 0 kts | 116° |
| 2026-05-04 11:26 | 48.11954 | 16.56839 | 614 ft | 4 kts | 116° |
| 2026-05-04 11:27 | 48.11908 | 16.57303 | 609 ft | 7 kts | 344° |
| 2026-05-04 11:28 | 48.11955 | 16.57285 | 614 ft | 8 kts | 352° |
| 2026-05-04 11:28 | 48.11993 | 16.57349 | 609 ft | 10 kts | 73° |
| 2026-05-04 11:28 | 48.12012 | 16.57451 | 613 ft | 10 kts | 79° |
| 2026-05-04 11:28 | 48.12001 | 16.57562 | 615 ft | 12 kts | 103° |
| 2026-05-04 11:29 | 48.11977 | 16.57698 | 615 ft | 15 kts | 104° |
| 2026-05-04 11:29 | 48.11938 | 16.57821 | 615 ft | 9 kts | 127° |
| 2026-05-04 11:29 | 48.11893 | 16.57854 | 611 ft | 8 kts | 164° |
| 2026-05-04 11:29 | 48.11768 | 16.57907 | 614 ft | 46 kts | 163° |
| 2026-05-04 11:31 | 48.04656 | 16.60849 | 3405 ft | 215 kts | 164° |
| 2026-05-04 11:33 | 47.92514 | 16.63004 | 9130 ft | 272 kts | 184° |
| 2026-05-04 11:33 | 47.90607 | 16.62832 | 9936 ft | 277 kts | 184° |
| 2026-05-04 11:33 | 47.88657 | 16.62700 | 10665 ft | 285 kts | 182° |
| 2026-05-04 11:34 | 47.86594 | 16.62589 | 10945 ft | 309 kts | 182° |
| 2026-05-04 11:34 | 47.84385 | 16.62475 | 11255 ft | 331 kts | 182° |
| 2026-05-04 11:34 | 47.82060 | 16.62361 | 11994 ft | 335 kts | 182° |
| 2026-05-04 11:34 | 47.79713 | 16.62241 | 12750 ft | 339 kts | 182° |
| 2026-05-04 11:35 | 47.77340 | 16.62111 | 13505 ft | 343 kts | 182° |
| 2026-05-04 11:35 | 47.74945 | 16.61969 | 14220 ft | 347 kts | 182° |
| 2026-05-04 11:35 | 47.72511 | 16.61819 | 14928 ft | 351 kts | 182° |
| 2026-05-04 11:35 | 47.70083 | 16.61669 | 15590 ft | 355 kts | 182° |
| 2026-05-04 11:36 | 47.67602 | 16.61518 | 16261 ft | 359 kts | 182° |
| 2026-05-04 11:36 | 47.65091 | 16.61366 | 16900 ft | 363 kts | 182° |
| 2026-05-04 11:36 | 47.62550 | 16.61209 | 17535 ft | 367 kts | 182° |
| 2026-05-04 11:36 | 47.59979 | 16.61049 | 18163 ft | 371 kts | 183° |
| 2026-05-04 11:37 | 47.57377 | 16.60887 | 18732 ft | 375 kts | 183° |
| 2026-05-04 11:37 | 47.54759 | 16.60724 | 19269 ft | 378 kts | 182° |
| 2026-05-04 11:37 | 47.52112 | 16.60559 | 19821 ft | 382 kts | 183° |
| 2026-05-04 11:37 | 47.49476 | 16.60394 | 20368 ft | 385 kts | 183° |
| 2026-05-04 11:38 | 47.46783 | 16.60226 | 20921 ft | 389 kts | 183° |
| 2026-05-04 11:38 | 47.44060 | 16.60058 | 21454 ft | 393 kts | 183° |
| 2026-05-04 11:38 | 47.41312 | 16.59937 | 21997 ft | 396 kts | 181° |
| 2026-05-04 11:38 | 47.38537 | 16.59966 | 22529 ft | 400 kts | 179° |
| 2026-05-04 11:39 | 47.35735 | 16.60098 | 23044 ft | 404 kts | 178° |
| 2026-05-04 11:39 | 47.32907 | 16.60275 | 23530 ft | 408 kts | 178° |
| 2026-05-04 11:40 | 47.15473 | 16.61160 | 25883 ft | 427 kts | 179° |
| 2026-05-04 11:41 | 47.12486 | 16.61282 | 26246 ft | 430 kts | 179° |
| 2026-05-04 11:41 | 47.09482 | 16.61407 | 26604 ft | 433 kts | 179° |
| 2026-05-04 11:41 | 47.06495 | 16.61532 | 26939 ft | 436 kts | 179° |
| 2026-05-04 11:41 | 47.03444 | 16.61664 | 27284 ft | 439 kts | 179° |
| 2026-05-04 11:42 | 47.00381 | 16.61799 | 27617 ft | 442 kts | 179° |
| 2026-05-04 11:42 | 46.97292 | 16.61937 | 27970 ft | 445 kts | 179° |
| 2026-05-04 11:42 | 46.94185 | 16.62076 | 28327 ft | 447 kts | 179° |
| 2026-05-04 11:42 | 46.91060 | 16.62210 | 28658 ft | 450 kts | 179° |
| 2026-05-04 11:43 | 46.88977 | 16.62298 | 28880 ft | 452 kts | 179° |
| 2026-05-04 11:43 | 46.85827 | 16.62429 | 29219 ft | 454 kts | 179° |
| 2026-05-04 11:43 | 46.81612 | 16.62614 | 29638 ft | 457 kts | 178° |
| 2026-05-04 11:43 | 46.78446 | 16.63123 | 29932 ft | 460 kts | 173° |
| 2026-05-04 11:44 | 46.76295 | 16.63542 | 30122 ft | 461 kts | 173° |
| 2026-05-04 11:44 | 46.73103 | 16.64170 | 30371 ft | 464 kts | 173° |
| 2026-05-04 11:44 | 46.69934 | 16.64789 | 30621 ft | 465 kts | 173° |
| 2026-05-04 11:44 | 46.66718 | 16.65407 | 30850 ft | 467 kts | 173° |
| 2026-05-04 11:45 | 46.63472 | 16.66025 | 31084 ft | 469 kts | 173° |
| 2026-05-04 11:45 | 46.60232 | 16.66640 | 31319 ft | 470 kts | 173° |
| 2026-05-04 11:45 | 46.56989 | 16.67254 | 31645 ft | 469 kts | 173° |
| 2026-05-04 11:45 | 46.53747 | 16.67866 | 31963 ft | 468 kts | 173° |
| 2026-05-04 11:46 | 46.50523 | 16.68475 | 32290 ft | 467 kts | 173° |
| 2026-05-04 11:46 | 46.47295 | 16.69087 | 32610 ft | 467 kts | 173° |
| 2026-05-04 11:46 | 46.44099 | 16.69482 | 32914 ft | 465 kts | 181° |
| 2026-05-04 11:46 | 46.40879 | 16.69166 | 33066 ft | 463 kts | 191° |
| 2026-05-04 11:47 | 46.37776 | 16.68096 | 33087 ft | 453 kts | 200° |
| 2026-05-04 11:47 | 46.32075 | 16.64395 | 33082 ft | 448 kts | 207° |
| 2026-05-04 11:48 | 46.26427 | 16.60519 | 33088 ft | 448 kts | 207° |
| 2026-05-04 11:48 | 46.20774 | 16.56672 | 33085 ft | 448 kts | 207° |
| 2026-05-04 11:49 | 46.15162 | 16.52847 | 33085 ft | 448 kts | 207° |
| 2026-05-04 11:49 | 46.09518 | 16.49001 | 33086 ft | 448 kts | 207° |
| 2026-05-04 11:50 | 46.03870 | 16.45156 | 33085 ft | 448 kts | 207° |
| 2026-05-04 11:50 | 45.98265 | 16.41349 | 33084 ft | 448 kts | 207° |
| 2026-05-04 11:51 | 45.92620 | 16.37531 | 33082 ft | 448 kts | 207° |
| 2026-05-04 11:51 | 45.86967 | 16.33729 | 33077 ft | 448 kts | 207° |
| 2026-05-04 11:52 | 45.81315 | 16.29933 | 33072 ft | 448 kts | 207° |
| 2026-05-04 11:52 | 45.75675 | 16.26147 | 33071 ft | 447 kts | 207° |
| 2026-05-04 11:53 | 45.70095 | 16.22404 | 33065 ft | 447 kts | 207° |
| 2026-05-04 11:53 | 45.64436 | 16.18615 | 33064 ft | 447 kts | 207° |
| 2026-05-04 11:55 | 45.41462 | 16.05294 | 33066 ft | 451 kts | 187° |
| 2026-05-04 11:56 | 45.35223 | 16.04547 | 33068 ft | 452 kts | 186° |
| 2026-05-04 11:56 | 45.28927 | 16.03839 | 33062 ft | 452 kts | 186° |
| 2026-05-04 11:57 | 45.22680 | 16.03143 | 33071 ft | 453 kts | 186° |
| 2026-05-04 11:57 | 45.16382 | 16.02425 | 33007 ft | 454 kts | 186° |
| 2026-05-04 11:58 | 45.10051 | 16.01699 | 33079 ft | 457 kts | 186° |
| 2026-05-04 11:58 | 45.04053 | 16.01010 | 33078 ft | 458 kts | 186° |
| 2026-05-04 11:59 | 44.98248 | 16.00354 | 33079 ft | 458 kts | 186° |
| 2026-05-04 11:59 | 44.91895 | 15.99628 | 33084 ft | 458 kts | 186° |
| 2026-05-04 12:00 | 44.85537 | 15.98903 | 33082 ft | 458 kts | 187° |
| 2026-05-04 12:00 | 44.79210 | 15.98185 | 33083 ft | 459 kts | 187° |
| 2026-05-04 12:01 | 44.72843 | 15.97473 | 33088 ft | 459 kts | 187° |
| 2026-05-04 12:02 | 44.51096 | 15.95048 | 29843 ft | 436 kts | 186° |
| 2026-05-04 12:03 | 44.48085 | 15.94711 | 29280 ft | 432 kts | 186° |
| 2026-05-04 12:03 | 44.45091 | 15.94373 | 28733 ft | 429 kts | 186° |
| 2026-05-04 12:03 | 44.42121 | 15.94037 | 28146 ft | 426 kts | 186° |
| 2026-05-04 12:03 | 44.39165 | 15.93707 | 27577 ft | 424 kts | 186° |
| 2026-05-04 12:04 | 44.36267 | 15.93382 | 27012 ft | 422 kts | 186° |
| 2026-05-04 12:04 | 44.33351 | 15.93055 | 26458 ft | 419 kts | 186° |
| 2026-05-04 12:04 | 44.30448 | 15.92733 | 25910 ft | 417 kts | 186° |
| 2026-05-04 12:04 | 44.27556 | 15.92416 | 25375 ft | 415 kts | 186° |
| 2026-05-04 12:05 | 44.24688 | 15.92103 | 24852 ft | 412 kts | 186° |
| 2026-05-04 12:05 | 44.21855 | 15.91795 | 24600 ft | 403 kts | 186° |
| 2026-05-04 12:05 | 44.19087 | 15.91492 | 24262 ft | 397 kts | 186° |
| 2026-05-04 12:05 | 44.16343 | 15.91189 | 23851 ft | 393 kts | 186° |
| 2026-05-04 12:06 | 44.13624 | 15.90888 | 23380 ft | 390 kts | 186° |
| 2026-05-04 12:06 | 44.10955 | 15.90593 | 22904 ft | 387 kts | 186° |
| 2026-05-04 12:06 | 44.08245 | 15.90293 | 22429 ft | 384 kts | 186° |
| 2026-05-04 12:06 | 44.05630 | 15.90001 | 21985 ft | 381 kts | 186° |
| 2026-05-04 12:07 | 44.02991 | 15.89707 | 21542 ft | 377 kts | 186° |
| 2026-05-04 12:07 | 44.00383 | 15.89418 | 21110 ft | 374 kts | 186° |
| 2026-05-04 12:07 | 43.97787 | 15.89133 | 20604 ft | 372 kts | 185° |
| 2026-05-04 12:07 | 43.95218 | 15.88852 | 20052 ft | 368 kts | 185° |
| 2026-05-04 12:08 | 43.92677 | 15.88574 | 19528 ft | 364 kts | 185° |
| 2026-05-04 12:08 | 43.90151 | 15.88295 | 19132 ft | 361 kts | 185° |
| 2026-05-04 12:08 | 43.87696 | 15.88022 | 18719 ft | 356 kts | 185° |
| 2026-05-04 12:08 | 43.85200 | 15.87748 | 17810 ft | 367 kts | 184° |
| 2026-05-04 12:09 | 43.82657 | 15.87471 | 17413 ft | 363 kts | 184° |
| 2026-05-04 12:09 | 43.80181 | 15.87202 | 17269 ft | 351 kts | 184° |
| 2026-05-04 12:09 | 43.77776 | 15.86941 | 16837 ft | 347 kts | 184° |
| 2026-05-04 12:09 | 43.75320 | 15.86676 | 15850 ft | 362 kts | 184° |
| 2026-05-04 12:10 | 43.72774 | 15.86399 | 15118 ft | 369 kts | 184° |
| 2026-05-04 12:10 | 43.70210 | 15.86117 | 14595 ft | 368 kts | 184° |
| 2026-05-04 12:10 | 43.67667 | 15.85838 | 14118 ft | 366 kts | 184° |
| 2026-05-04 12:10 | 43.65129 | 15.85562 | 13394 ft | 368 kts | 184° |
| 2026-05-04 12:11 | 43.62563 | 15.85286 | 12686 ft | 369 kts | 184° |
| 2026-05-04 12:11 | 43.60030 | 15.85013 | 11809 ft | 362 kts | 184° |
| 2026-05-04 12:11 | 43.57556 | 15.84746 | 10839 ft | 358 kts | 184° |
| 2026-05-04 12:11 | 43.55083 | 15.84477 | 9888 ft | 353 kts | 184° |
| 2026-05-04 12:12 | 43.52649 | 15.84214 | 8954 ft | 347 kts | 184° |
| 2026-05-04 12:12 | 43.50339 | 15.83966 | 8762 ft | 318 kts | 184° |
| 2026-05-04 12:12 | 43.48222 | 15.83737 | 8610 ft | 293 kts | 184° |
| 2026-05-04 12:12 | 43.46228 | 15.83523 | 8134 ft | 282 kts | 184° |
| 2026-05-04 12:13 | 43.44282 | 15.83313 | 7496 ft | 279 kts | 184° |
| 2026-05-04 12:14 | 43.31948 | 15.85918 | 3127 ft | 263 kts | 135° |
| 2026-05-04 12:15 | 43.30754 | 15.87816 | 2998 ft | 263 kts | 118° |
| 2026-05-04 12:15 | 43.30329 | 15.90189 | 3005 ft | 263 kts | 85° |
| 2026-05-04 12:15 | 43.30988 | 15.92487 | 3009 ft | 262 kts | 49° |
| 2026-05-04 12:15 | 43.32484 | 15.93879 | 3016 ft | 263 kts | 22° |
| 2026-05-04 12:16 | 43.34137 | 15.94957 | 3006 ft | 264 kts | 35° |
| 2026-05-04 12:16 | 43.35444 | 15.96723 | 3015 ft | 264 kts | 51° |
| 2026-05-04 12:16 | 43.36547 | 15.98748 | 3012 ft | 264 kts | 53° |
| 2026-05-04 12:16 | 43.37649 | 16.00767 | 3013 ft | 264 kts | 53° |
| 2026-05-04 12:17 | 43.38771 | 16.02767 | 3014 ft | 264 kts | 52° |
| 2026-05-04 12:17 | 43.39516 | 16.04089 | 3013 ft | 264 kts | 52° |
| 2026-05-04 12:17 | 43.41006 | 16.06741 | 3011 ft | 264 kts | 52° |
| 2026-05-04 12:17 | 43.42125 | 16.08736 | 3009 ft | 257 kts | 52° |
| 2026-05-04 12:18 | 43.43178 | 16.10613 | 3006 ft | 238 kts | 53° |
| 2026-05-04 12:18 | 43.44167 | 16.12378 | 2907 ft | 231 kts | 53° |
| 2026-05-04 12:18 | 43.45153 | 16.14140 | 2648 ft | 233 kts | 53° |
| 2026-05-04 12:18 | 43.45615 | 16.14966 | 2526 ft | 232 kts | 53° |
| 2026-05-04 12:19 | 43.46435 | 16.16382 | 2297 ft | 221 kts | 54° |
| 2026-05-04 12:20 | 43.47346 | 16.18040 | 1992 ft | 213 kts | 54° |
| 2026-05-04 12:20 | 43.48222 | 16.19619 | 1732 ft | 201 kts | 56° |
| 2026-05-04 12:20 | 43.49032 | 16.21070 | 1443 ft | 183 kts | 56° |
| 2026-05-04 12:20 | 43.49752 | 16.22360 | 1246 ft | 166 kts | 54° |
| 2026-05-04 12:21 | 43.50431 | 16.23578 | 1001 ft | 153 kts | 53° |
| 2026-05-04 12:21 | 43.51069 | 16.24723 | 796 ft | 149 kts | 53° |
| 2026-05-04 12:21 | 43.51703 | 16.25859 | 589 ft | 149 kts | 52° |
| 2026-05-04 12:21 | 43.52335 | 16.26990 | 395 ft | 148 kts | 53° |
| 2026-05-04 12:22 | 43.52973 | 16.28141 | 209 ft | 154 kts | 51° |
| 2026-05-04 12:22 | 43.53597 | 16.29259 | 80 ft | 134 kts | 53° |
| 2026-05-04 12:22 | 43.53988 | 16.29960 | 63 ft | 54 kts | 52° |
| 2026-05-04 12:22 | 43.54055 | 16.30112 | 65 ft | 1 kts | 123° |
| 2026-05-04 12:23 | 43.54041 | 16.30110 | 60 ft | 6 kts | 181° |
| 2026-05-04 12:23 | 43.53980 | 16.30089 | 61 ft | 9 kts | 195° |
| 2026-05-04 12:23 | 43.53924 | 16.30066 | 68 ft | 8 kts | 198° |
| 2026-05-04 12:23 | 43.53887 | 16.30028 | 61 ft | 6 kts | 238° |
| 2026-05-04 12:24 | 43.53869 | 16.29994 | 68 ft | 7 kts | 232° |
| 2026-05-04 12:24 | 43.53834 | 16.29932 | 68 ft | 7 kts | 232° |
| 2026-05-04 12:24 | 43.53802 | 16.29874 | 68 ft | 7 kts | 234° |
| 2026-05-04 12:24 | 43.53779 | 16.29883 | 64 ft | 5 kts | 104° |
| 2026-05-04 12:25 | 43.53768 | 16.29921 | 66 ft | 4 kts | 115° |
| 2026-05-04 12:25 | 43.53762 | 16.29939 | 67 ft | 1 kts | 114° |